createdAt,value
2019-06-08T00:04:50.686Z,22.05
2019-06-08T00:09:52.761Z,21.93
2019-06-08T00:14:54.805Z,21.86
2019-06-08T00:19:56.903Z,21.90
2019-06-08T00:24:59.150Z,21.88
2019-06-08T00:30:01.449Z,21.77
2019-06-08T00:35:04.191Z,21.56
2019-06-08T00:40:06.668Z,21.53
2019-06-08T00:45:08.860Z,21.36
2019-06-08T00:50:11.484Z,21.24
2019-06-08T00:55:13.549Z,21.27
2019-06-08T01:00:16.312Z,21.23
2019-06-08T01:05:19.761Z,21.73
2019-06-08T01:10:23.457Z,21.33
2019-06-08T01:15:32.227Z,21.29
2019-06-08T01:20:29.858Z,21.30
2019-06-08T01:25:31.916Z,20.98
2019-06-08T01:30:33.951Z,20.70
2019-06-08T01:35:36.006Z,20.53
2019-06-08T01:40:38.091Z,20.61
2019-06-08T01:45:40.166Z,20.61
2019-06-08T01:50:42.222Z,20.38
2019-06-08T01:55:44.330Z,20.23
2019-06-08T02:00:46.369Z,20.09
2019-06-08T02:05:48.420Z,19.93
2019-06-08T02:10:50.569Z,19.92
2019-06-08T02:15:52.648Z,19.97
2019-06-08T02:20:54.722Z,20.05
2019-06-08T02:25:56.792Z,20.09
2019-06-08T02:30:58.899Z,20.12
2019-06-08T02:36:00.930Z,20.17
2019-06-08T02:41:02.988Z,20.03
2019-06-08T02:46:05.034Z,20.08
2019-06-08T02:51:07.245Z,20.10
2019-06-08T02:56:12.524Z,20.06
2019-06-08T03:01:18.252Z,20.02
2019-06-08T03:06:20.698Z,20.15
2019-06-08T03:11:25.068Z,20.18
2019-06-08T03:16:27.110Z,20.07
2019-06-08T03:21:29.162Z,20.10
2019-06-08T03:26:32.094Z,20.15
2019-06-08T03:31:39.008Z,20.06
2019-06-08T03:36:46.132Z,20.11
2019-06-08T03:41:43.184Z,20.04
2019-06-08T03:46:46.444Z,19.96
2019-06-08T03:51:49.083Z,20.00
2019-06-08T03:56:51.532Z,19.79
2019-06-08T04:01:53.564Z,19.72
2019-06-08T04:06:55.630Z,19.63
2019-06-08T04:11:57.672Z,19.50
2019-06-08T04:16:59.734Z,19.58
2019-06-08T04:22:01.830Z,19.60
2019-06-08T04:27:03.833Z,19.64
2019-06-08T04:32:05.887Z,19.63
2019-06-08T04:37:07.946Z,19.49
2019-06-08T04:42:10.043Z,19.59
2019-06-08T04:47:12.125Z,19.70
2019-06-08T04:52:14.219Z,19.75
2019-06-08T04:57:16.288Z,19.72
2019-06-08T05:02:18.376Z,20.02
2019-06-08T05:07:20.486Z,19.88
2019-06-08T05:12:22.530Z,19.96
2019-06-08T05:17:24.602Z,20.05
2019-06-08T05:22:26.621Z,19.92
2019-06-08T05:27:28.693Z,19.94
2019-06-08T05:32:30.803Z,19.83
2019-06-08T05:37:32.856Z,19.84
2019-06-08T05:42:34.912Z,19.79
2019-06-08T05:47:36.984Z,19.84
2019-06-08T05:52:39.863Z,20.00
2019-06-08T05:57:42.174Z,19.87
2019-06-08T06:02:44.778Z,19.95
2019-06-08T06:07:47.125Z,19.86
2019-06-08T06:12:49.195Z,19.92
2019-06-08T06:17:51.654Z,19.79
2019-06-08T06:22:53.857Z,19.77
2019-06-08T06:27:55.955Z,19.87
2019-06-08T06:32:57.876Z,19.86
2019-06-08T06:37:59.953Z,19.94
2019-06-08T06:43:02.105Z,19.93
2019-06-08T06:48:04.263Z,19.87
2019-06-08T06:53:06.295Z,19.80
2019-06-08T06:58:08.510Z,19.79
2019-06-08T07:03:11.343Z,19.64
2019-06-08T07:08:13.378Z,20.07
2019-06-08T07:13:15.422Z,20.13
2019-06-08T07:18:17.470Z,20.08
2019-06-08T07:23:19.566Z,20.29
2019-06-08T07:28:21.847Z,20.47
2019-06-08T07:33:23.873Z,20.61
2019-06-08T07:38:25.900Z,20.86
2019-06-08T07:43:27.916Z,21.34
2019-06-08T07:48:29.981Z,22.64
2019-06-08T07:53:32.046Z,23.18
2019-06-08T07:58:34.105Z,22.80
2019-06-08T08:03:36.191Z,22.68
2019-06-08T08:08:38.273Z,22.51
2019-06-08T08:13:40.338Z,22.71
2019-06-08T08:18:42.426Z,22.38
2019-06-08T08:23:44.484Z,21.95
2019-06-08T08:28:50.025Z,21.58
2019-06-08T08:33:52.530Z,21.38
2019-06-08T08:38:55.947Z,21.66
2019-06-08T08:44:02.787Z,21.77
2019-06-08T08:49:09.436Z,21.45
2019-06-08T08:54:08.499Z,21.26
2019-06-08T08:59:10.830Z,21.00
2019-06-08T09:04:13.058Z,20.78
2019-06-08T09:09:15.150Z,20.70
2019-06-08T09:14:18.436Z,20.52
2019-06-08T09:19:21.496Z,20.44
2019-06-08T09:24:23.553Z,20.27
2019-06-08T09:29:25.588Z,20.37
2019-06-08T09:34:28.281Z,20.48
2019-06-08T09:39:30.490Z,20.50
2019-06-08T09:44:32.552Z,20.77
2019-06-08T09:49:34.591Z,21.14
2019-06-08T09:54:38.468Z,21.65
2019-06-08T09:59:40.727Z,21.75
2019-06-08T10:04:42.806Z,21.92
2019-06-08T10:09:44.878Z,21.94
2019-06-08T10:14:49.008Z,22.22
2019-06-08T10:19:50.897Z,22.31
2019-06-08T10:24:52.916Z,22.63
2019-06-08T10:29:55.269Z,22.67
2019-06-08T10:34:59.999Z,23.02
2019-06-08T10:40:05.440Z,23.21
2019-06-08T10:45:12.479Z,23.66
2019-06-08T10:50:15.392Z,23.86
2019-06-08T10:55:18.003Z,23.91
2019-06-08T11:00:23.978Z,24.01
2019-06-08T11:05:28.051Z,24.05
2019-06-08T11:10:32.327Z,24.07
2019-06-08T11:15:34.429Z,24.29
2019-06-08T11:20:38.215Z,24.39
2019-06-08T11:25:40.450Z,24.58
2019-06-08T11:30:43.727Z,24.64
2019-06-08T11:35:45.989Z,24.53
2019-06-08T11:40:48.063Z,25.29
2019-06-08T11:45:50.095Z,24.73
2019-06-08T11:50:52.224Z,24.64
2019-06-08T11:55:55.120Z,24.77
2019-06-08T12:01:03.475Z,24.85
2019-06-08T12:06:08.584Z,24.96
2019-06-08T12:11:15.881Z,24.83
2019-06-08T12:16:18.058Z,24.92
2019-06-08T12:21:18.530Z,24.85
2019-06-08T12:26:20.852Z,24.73
2019-06-08T12:31:23.068Z,24.67
2019-06-08T12:36:25.325Z,24.75
2019-06-08T12:41:28.861Z,24.84
2019-06-08T12:46:31.407Z,24.97
2019-06-08T12:51:33.423Z,24.88
2019-06-08T12:56:37.643Z,24.84
2019-06-08T13:01:39.567Z,24.99
2019-06-08T13:06:41.630Z,24.78
2019-06-08T13:11:43.645Z,24.67
2019-06-08T13:16:45.704Z,24.60
2019-06-08T13:21:48.736Z,24.64
2019-06-08T13:26:51.018Z,24.69
2019-06-08T13:31:53.106Z,24.73
2019-06-08T13:36:55.159Z,24.74
2019-06-08T13:41:57.221Z,24.84
2019-06-08T13:46:59.380Z,24.80
2019-06-08T13:52:01.447Z,24.65
2019-06-08T13:57:03.582Z,24.42
2019-06-08T14:02:05.668Z,24.29
2019-06-08T14:07:07.948Z,24.18
2019-06-08T14:12:10.453Z,24.29
2019-06-08T14:17:12.524Z,24.44
2019-06-08T14:22:14.669Z,24.40
2019-06-08T14:27:17.123Z,24.34
2019-06-08T14:32:20.749Z,24.19
2019-06-08T14:37:23.430Z,24.09
2019-06-08T14:42:29.670Z,24.00
2019-06-08T14:47:30.377Z,24.10
2019-06-08T14:52:32.763Z,24.06
2019-06-08T14:57:37.472Z,23.92
2019-06-08T15:02:38.953Z,24.06
2019-06-08T15:07:40.999Z,24.07
2019-06-08T15:12:43.077Z,24.16
2019-06-08T15:17:47.754Z,24.17
2019-06-08T15:22:49.913Z,24.28
2019-06-08T15:27:52.073Z,24.31
2019-06-08T15:32:58.677Z,24.30
2019-06-08T15:38:00.528Z,24.29
2019-06-08T15:43:02.649Z,24.25
2019-06-08T15:48:04.736Z,24.33
2019-06-08T15:53:08.447Z,24.39
2019-06-08T15:58:10.775Z,24.39
2019-06-08T16:03:12.800Z,24.33
2019-06-08T16:08:14.857Z,24.39
2019-06-08T16:13:16.915Z,24.36
2019-06-08T16:18:19.005Z,24.43
2019-06-08T16:23:21.081Z,24.28
2019-06-08T16:28:23.162Z,24.27
2019-06-08T16:33:25.338Z,24.46
2019-06-08T16:38:27.923Z,24.48
2019-06-08T16:43:31.060Z,24.40
2019-06-08T16:48:34.587Z,24.24
2019-06-08T16:53:36.837Z,24.21
2019-06-08T16:58:38.992Z,24.21
2019-06-08T17:03:41.604Z,24.18
2019-06-08T17:08:43.892Z,24.03
2019-06-08T17:13:45.968Z,23.92
2019-06-08T17:18:48.018Z,23.94
2019-06-08T17:23:50.112Z,23.83
2019-06-08T17:28:52.532Z,23.73
2019-06-08T17:33:54.678Z,23.68
2019-06-08T17:38:57.094Z,23.67
2019-06-08T17:43:59.169Z,23.71
2019-06-08T17:49:01.231Z,23.71
2019-06-08T17:54:03.284Z,23.64
2019-06-08T17:59:05.607Z,23.67
2019-06-08T18:04:08.283Z,23.63
2019-06-08T18:09:10.291Z,23.53
2019-06-08T18:14:13.058Z,23.55
2019-06-08T18:19:28.368Z,23.48
2019-06-08T18:24:30.464Z,23.42
2019-06-08T18:29:32.582Z,23.36
2019-06-08T18:34:35.324Z,23.33
2019-06-08T18:39:41.718Z,23.25
2019-06-08T18:44:43.996Z,23.18
2019-06-08T18:49:48.890Z,23.06
2019-06-08T18:54:51.175Z,22.96
2019-06-08T18:59:53.336Z,22.88
2019-06-08T19:04:57.378Z,22.79
2019-06-08T19:10:02.301Z,22.70
2019-06-08T19:15:05.237Z,22.60
2019-06-08T19:20:07.433Z,22.50
2019-06-08T19:25:09.719Z,22.41
2019-06-08T19:30:11.840Z,22.32
2019-06-08T19:35:13.980Z,22.23
2019-06-08T19:40:17.651Z,22.13
2019-06-08T19:45:20.008Z,22.05
2019-06-08T19:50:22.116Z,21.96
2019-06-08T19:55:24.166Z,21.85
2019-06-08T20:00:28.282Z,21.75
2019-06-08T20:05:30.189Z,21.65
2019-06-08T20:10:32.222Z,21.54
2019-06-08T20:15:34.280Z,21.46
2019-06-08T20:20:38.146Z,21.39
2019-06-08T20:25:41.097Z,21.31
2019-06-08T20:30:44.287Z,21.22
2019-06-08T20:35:48.519Z,21.15
2019-06-08T20:40:50.484Z,21.07
2019-06-08T20:45:53.473Z,20.99
2019-06-08T20:50:57.242Z,20.93
2019-06-08T20:55:59.567Z,20.84
2019-06-08T21:01:01.639Z,20.75
2019-06-08T21:06:03.806Z,20.65
2019-06-08T21:11:08.320Z,20.60
2019-06-08T21:16:09.820Z,20.55
2019-06-08T21:21:11.870Z,20.48
2019-06-08T21:26:13.908Z,20.38
2019-06-08T21:31:17.729Z,20.31
2019-06-08T21:36:19.982Z,20.22
2019-06-08T21:41:22.032Z,20.14
2019-06-08T21:46:24.072Z,20.10
2019-06-08T21:51:26.331Z,20.09
2019-06-08T21:56:28.457Z,20.05
2019-06-08T22:01:31.469Z,20.01
2019-06-08T22:06:33.527Z,20.24
2019-06-08T22:11:37.614Z,20.07
2019-06-08T22:16:39.905Z,19.94
2019-06-08T22:21:41.934Z,19.93
2019-06-08T22:26:44.078Z,19.88
2019-06-08T22:31:47.904Z,19.79
2019-06-08T22:36:50.257Z,19.68
2019-06-08T22:41:53.431Z,19.68
2019-06-08T22:46:58.432Z,19.64
2019-06-08T22:52:01.010Z,19.58
2019-06-08T22:57:04.833Z,19.48
2019-06-08T23:02:09.106Z,19.43
2019-06-08T23:07:25.869Z,19.40
2019-06-08T23:12:14.991Z,19.37
2019-06-08T23:17:17.858Z,19.33
2019-06-08T23:22:20.018Z,19.29
2019-06-08T23:27:22.026Z,19.27
2019-06-08T23:32:24.053Z,19.22
2019-06-08T23:37:27.710Z,19.17
2019-06-08T23:42:29.900Z,19.35
2019-06-08T23:47:31.944Z,19.13
2019-06-08T23:52:34.067Z,19.00
2019-06-08T23:57:38.004Z,18.82
